Strona główna
Zdjęcia satelitarne 15-dni prognozyKlimatMeteorologia morska Cyklony Błyskawica LotniskoFAQ Gazetka O
Pogoda : Europa Afryka Ameryka Północna Ameryka Południowa Azja Australia-Oceania Inny
Języki Kontakt

Albert, Francja

Albert-Picardie

Szerokość geograficzna: 49-58-21N, Długość geograficzna: 002-41-29E, wysokość: 111 m


METAR: LFAQ 231000Z AUTO VRB01KT 5000 BR BKN035 14/10 Q1022
TAF: LFAQ 230800Z 2309/2318 VRB02KT 4000 BR NSC BECMG 2309/2311 8000 NSW

czas: 12:19 (10:19 UTC)

Aktualna obserwacja pogody

Raport powstał 19 minut temu, godzina 10:00 UTC  
Wiatr 01 kt z kierunków zmiennych
Temperatura 14°C
Wilgotność 77%
Ciśnienie 1022 hPa
Widzialność 5000 m
Przerywane chmury na wysokości 3500 ft
zamglenie

Jednostka miary

Prognoza

Raport powstał 02 godziny i 19 minut temu, godzina 08:00 UTC  
Prognoza ważna od 23 godzina 09 UTC do 23 godzina 18 UTC
Wiatr 02 kt z kierunków zmiennych
Widzialność 4000 m
zamglenie
Stopniowe zmiany
od 23 godzina 09 UTC do 23 godzina 11 UTC
Widzialność 8000 m
Informacje na tej stronie internetowej podlegają klauzuli o wyłączeniu odpowiedzialności
Pogoda : Europa Afryka Ameryka Północna Ameryka Południowa Azja Australia-Oceania Inny
Zdjęcia satelitarne 15-dni prognozyKlimatMeteorologia morska Cyklony Błyskawica LotniskoFAQ Języki Kontakt Gazetka O